^^
Station Historical Data
Daily Summary for May 27, 2017 Units:  Both    English   Metric
« Previous Day
Next Day »
Daily Weekly Monthly Yearly Custom
  High: Low: Average:
Temperature: 76.6 °F /  24.8 °C 46.9 °F /  8.3 °C 61 °F /  16.1 °C
Dew Point: 39.6 °F /  4.2 °C 19.2 °F /  -7.1 °C 32.9 °F /  0.5 °C
Humidity: 66% 13% 40%
Wind Speed: 14.1mph /  22.7km/h - 1.5mph /  2.4km/h
Wind Gust: 18.0mph /  29km/h - -
Wind- - SW
Pressure: 30.33 in /  1027 hPa 30.18 in /  1021.9 hPa -
Precipitation: 0.00 in /  0 mm    
Historical Graphs
 
 
Tabular Data for May 27, 2017
Time Temperature Dew Point Pressure Wind Wind Speed Wind Gust Humidity Rainfall Rate (Hourly) solar Conditions
00:04 54.9 °F /  12.7 °C 35.6 °F /  2 °C 30.24in /  1023.9hPa Calm     48% 0.00in /  0mm 0.0 W/m2
00:10 55.2 °F /  12.9 °C 36.0 °F /  2.2 °C 30.24in /  1023.9hPa Calm     48% 0.00in /  0mm 0.0 W/m2
00:16 55.6 °F /  13.1 °C 36.1 °F /  2.3 °C 30.24in /  1023.9hPa Calm     48% 0.00in /  0mm 0.0 W/m2
00:22 55.8 °F /  13.2 °C 35.8 °F /  2.1 °C 30.24in /  1023.9hPa Calm     47% 0.00in /  0mm 0.0 W/m2
00:28 55.9 °F /  13.3 °C 36.0 °F /  2.2 °C 30.24in /  1023.9hPa Calm     47% 0.00in /  0mm 0.0 W/m2
00:34 56.3 °F /  13.5 °C 36.3 °F /  2.4 °C 30.23in /  1023.6hPa Calm     47% 0.00in /  0mm 0.0 W/m2
00:40 56.5 °F /  13.6 °C 36.0 °F /  2.2 °C 30.23in /  1023.6hPa Calm     46% 0.00in /  0mm 0.0 W/m2
00:46 56.5 °F /  13.6 °C 36.5 °F /  2.5 °C 30.23in /  1023.6hPa Calm     47% 0.00in /  0mm 0.0 W/m2
00:52 56.5 °F /  13.6 °C 36.0 °F /  2.2 °C 30.23in /  1023.6hPa Calm     46% 0.00in /  0mm 0.0 W/m2
00:59 56.5 °F /  13.6 °C 36.5 °F /  2.5 °C 30.23in /  1023.6hPa Calm     47% 0.00in /  0mm 0.0 W/m2
01:05 56.5 °F /  13.6 °C 36.0 °F /  2.2 °C 30.23in /  1023.6hPa Calm     46% 0.00in /  0mm 0.0 W/m2
01:11 56.5 °F /  13.6 °C 36.5 °F /  2.5 °C 30.22in /  1023.2hPa Calm     47% 0.00in /  0mm 0.0 W/m2
01:17 56.3 °F /  13.5 °C 36.3 °F /  2.4 °C 30.22in /  1023.2hPa Calm     47% 0.00in /  0mm 0.0 W/m2
01:23 56.1 °F /  13.4 °C 36.7 °F /  2.6 °C 30.22in /  1023.2hPa Calm     48% 0.00in /  0mm 0.0 W/m2
01:29 55.9 °F /  13.3 °C 36.5 °F /  2.5 °C 30.22in /  1023.2hPa Calm     48% 0.00in /  0mm 0.0 W/m2
01:31 55.9 °F /  13.3 °C 37.0 °F /  2.8 °C 30.22in /  1023.2hPa Calm     49% 0.00in /  0mm 0.0 W/m2
01:38 55.8 °F /  13.2 °C 36.9 °F /  2.7 °C 30.22in /  1023.2hPa Calm     49% 0.00in /  0mm 0.0 W/m2
01:44 55.6 °F /  13.1 °C 36.7 °F /  2.6 °C 30.22in /  1023.2hPa Calm     49% 0.00in /  0mm 0.0 W/m2
01:50 55.6 °F /  13.1 °C 36.7 °F /  2.6 °C 30.22in /  1023.2hPa Calm   1.0mph /  1.6km/h 49% 0.00in /  0mm 0.0 W/m2
01:56 55.4 °F /  13 °C 37.0 °F /  2.8 °C 30.21in /  1022.9hPa Calm   1.0mph /  1.6km/h 50% 0.00in /  0mm 0.0 W/m2
02:02 55.6 °F /  13.1 °C 36.7 °F /  2.6 °C 30.21in /  1022.9hPa Calm     49% 0.00in /  0mm 0.0 W/m2
02:08 55.6 °F /  13.1 °C 36.7 °F /  2.6 °C 30.21in /  1022.9hPa Calm   1.0mph /  1.6km/h 49% 0.00in /  0mm 0.0 W/m2
02:14 55.8 °F /  13.2 °C 36.9 °F /  2.7 °C 30.21in /  1022.9hPa Calm   3.0mph /  4.8km/h 49% 0.00in /  0mm 0.0 W/m2
02:21 55.8 °F /  13.2 °C 36.9 °F /  2.7 °C 30.21in /  1022.9hPa Calm   1.0mph /  1.6km/h 49% 0.00in /  0mm 0.0 W/m2
02:27 55.6 °F /  13.1 °C 36.1 °F /  2.3 °C 30.21in /  1022.9hPa Calm   1.0mph /  1.6km/h 48% 0.00in /  0mm 0.0 W/m2
02:33 55.6 °F /  13.1 °C 36.7 °F /  2.6 °C 30.21in /  1022.9hPa East 2.0mph /  3.2km/h 2.0mph /  3.2km/h 49% 0.00in /  0mm 0.0 W/m2
02:39 55.4 °F /  13 °C 36.5 °F /  2.5 °C 30.20in /  1022.6hPa Calm   1.0mph /  1.6km/h 49% 0.00in /  0mm 0.0 W/m2
02:45 55.2 °F /  12.9 °C 36.3 °F /  2.4 °C 30.20in /  1022.6hPa Calm     49% 0.00in /  0mm 0.0 W/m2
02:51 54.9 °F /  12.7 °C 36.5 °F /  2.5 °C 30.20in /  1022.6hPa Calm   3.0mph /  4.8km/h 50% 0.00in /  0mm 0.0 W/m2
02:57 54.7 °F /  12.6 °C 36.9 °F /  2.7 °C 30.20in /  1022.6hPa Calm     51% 0.00in /  0mm 0.0 W/m2
03:04 54.3 °F /  12.4 °C 36.5 °F /  2.5 °C 30.20in /  1022.6hPa Calm   2.0mph /  3.2km/h 51% 0.00in /  0mm 0.0 W/m2
03:10 54.1 °F /  12.3 °C 36.3 °F /  2.4 °C 30.20in /  1022.6hPa Calm   1.0mph /  1.6km/h 51% 0.00in /  0mm 0.0 W/m2
03:16 54.0 °F /  12.2 °C 36.7 °F /  2.6 °C 30.20in /  1022.6hPa Calm     52% 0.00in /  0mm 0.0 W/m2
03:22 53.8 °F /  12.1 °C 37.0 °F /  2.8 °C 30.20in /  1022.6hPa SSE 0.9mph /  1.4km/h 1.0mph /  1.6km/h 53% 0.00in /  0mm 0.0 W/m2
03:28 53.4 °F /  11.9 °C 36.7 °F /  2.6 °C 30.19in /  1022.2hPa Calm     53% 0.00in /  0mm 0.0 W/m2
03:34 53.1 °F /  11.7 °C 36.9 °F /  2.7 °C 30.20in /  1022.6hPa Calm     54% 0.00in /  0mm 0.0 W/m2
03:40 52.9 °F /  11.6 °C 36.7 °F /  2.6 °C 30.20in /  1022.6hPa Calm     54% 0.00in /  0mm 0.0 W/m2
03:47 52.5 °F /  11.4 °C 36.9 °F /  2.7 °C 30.20in /  1022.6hPa Calm     55% 0.00in /  0mm 0.0 W/m2
03:53 52.3 °F /  11.3 °C 36.7 °F /  2.6 °C 30.20in /  1022.6hPa Calm     55% 0.00in /  0mm 0.0 W/m2
03:59 52.2 °F /  11.2 °C 36.9 °F /  2.7 °C 30.20in /  1022.6hPa Calm     56% 0.00in /  0mm 0.0 W/m2
04:05 52.2 °F /  11.2 °C 36.9 °F /  2.7 °C 30.20in /  1022.6hPa Calm   1.0mph /  1.6km/h 56% 0.00in /  0mm 0.0 W/m2
04:11 52.0 °F /  11.1 °C 36.9 °F /  2.7 °C 30.20in /  1022.6hPa Calm   2.0mph /  3.2km/h 56% 0.00in /  0mm 0.0 W/m2
04:17 51.8 °F /  11 °C 36.7 °F /  2.6 °C 30.20in /  1022.6hPa Calm   2.0mph /  3.2km/h 56% 0.00in /  0mm 0.0 W/m2
04:23 51.6 °F /  10.9 °C 36.5 °F /  2.5 °C 30.20in /  1022.6hPa Calm     56% 0.00in /  0mm 0.0 W/m2
04:29 51.4 °F /  10.8 °C 36.7 °F /  2.6 °C 30.20in /  1022.6hPa Calm     57% 0.00in /  0mm 0.0 W/m2
04:36 51.3 °F /  10.7 °C 36.5 °F /  2.5 °C 30.20in /  1022.6hPa Calm     57% 0.00in /  0mm 0.0 W/m2
04:42 51.1 °F /  10.6 °C 36.3 °F /  2.4 °C 30.20in /  1022.6hPa Calm     57% 0.00in /  0mm 0.0 W/m2
04:48 50.5 °F /  10.3 °C 36.3 °F /  2.4 °C 30.20in /  1022.6hPa Calm     58% 0.00in /  0mm 0.0 W/m2
04:54 50.4 °F /  10.2 °C 36.5 °F /  2.5 °C 30.20in /  1022.6hPa Calm     59% 0.00in /  0mm 0.0 W/m2
05:00 50.0 °F /  10 °C 36.3 °F /  2.4 °C 30.20in /  1022.6hPa Calm     59% 0.00in /  0mm 0.0 W/m2
05:06 49.6 °F /  9.8 °C 36.0 °F /  2.2 °C 30.20in /  1022.6hPa Calm     59% 0.00in /  0mm 0.0 W/m2
05:12 49.3 °F /  9.6 °C 36.3 °F /  2.4 °C 30.20in /  1022.6hPa Calm     61% 0.00in /  0mm 0.0 W/m2
05:19 48.9 °F /  9.4 °C 36.1 °F /  2.3 °C 30.20in /  1022.6hPa Calm     61% 0.00in /  0mm 0.0 W/m2
05:25 48.7 °F /  9.3 °C 36.0 °F /  2.2 °C 30.21in /  1022.9hPa Calm     61% 0.00in /  0mm 0.0 W/m2
05:31 48.6 °F /  9.2 °C 36.1 °F /  2.3 °C 30.21in /  1022.9hPa Calm     62% 0.00in /  0mm 0.0 W/m2
05:37 48.0 °F /  8.9 °C 35.6 °F /  2 °C 30.21in /  1022.9hPa Calm     62% 0.00in /  0mm 0.0 W/m2
05:43 47.8 °F /  8.8 °C 35.4 °F /  1.9 °C 30.21in /  1022.9hPa Calm     62% 0.00in /  0mm 0.0 W/m2
05:49 47.7 °F /  8.7 °C 35.6 °F /  2 °C 30.21in /  1022.9hPa Calm     63% 0.00in /  0mm 0.0 W/m2
05:55 47.5 °F /  8.6 °C 35.6 °F /  2 °C 30.21in /  1022.9hPa Calm     63% 0.00in /  0mm 0.0 W/m2
06:02 47.1 °F /  8.4 °C 35.2 °F /  1.8 °C 30.21in /  1022.9hPa Calm     63% 0.00in /  0mm 0.0 W/m2
06:08 47.1 °F /  8.4 °C 35.6 °F /  2 °C 30.21in /  1022.9hPa Calm     64% 0.00in /  0mm 0.0 W/m2
06:16 46.9 °F /  8.3 °C 35.4 °F /  1.9 °C 30.21in /  1022.9hPa Calm   2.0mph /  3.2km/h 64% 0.00in /  0mm 0.0 W/m2
06:22 47.1 °F /  8.4 °C 35.6 °F /  2 °C 30.22in /  1023.2hPa Calm   1.0mph /  1.6km/h 64% 0.00in /  0mm 0.0 W/m2
06:28 47.5 °F /  8.6 °C 36.0 °F /  2.2 °C 30.22in /  1023.2hPa Calm     64% 0.00in /  0mm 5.0 W/m2
06:36 47.5 °F /  8.6 °C 36.0 °F /  2.2 °C 30.22in /  1023.2hPa Calm     64% 0.00in /  0mm 9.0 W/m2
06:43 47.1 °F /  8.4 °C 35.2 °F /  1.8 °C 30.22in /  1023.2hPa Calm     63% 0.00in /  0mm 12.0 W/m2
06:49 46.9 °F /  8.3 °C 35.4 °F /  1.9 °C 30.22in /  1023.2hPa Calm     64% 0.00in /  0mm 14.0 W/m2
06:55 46.9 °F /  8.3 °C 35.1 °F /  1.7 °C 30.22in /  1023.2hPa Calm     63% 0.00in /  0mm 16.0 W/m2
07:01 46.9 °F /  8.3 °C 35.4 °F /  1.9 °C 30.22in /  1023.2hPa Calm     64% 0.00in /  0mm 18.0 W/m2
07:07 46.9 °F /  8.3 °C 35.8 °F /  2.1 °C 30.22in /  1023.2hPa Calm   1.0mph /  1.6km/h 65% 0.00in /  0mm 19.0 W/m2
07:13 46.9 °F /  8.3 °C 36.1 °F /  2.3 °C 30.23in /  1023.6hPa Calm   1.0mph /  1.6km/h 66% 0.00in /  0mm 21.0 W/m2
07:19 47.3 °F /  8.5 °C 36.5 °F /  2.5 °C 30.23in /  1023.6hPa Calm   1.0mph /  1.6km/h 66% 0.00in /  0mm 23.0 W/m2
07:25 47.7 °F /  8.7 °C 36.9 °F /  2.7 °C 30.23in /  1023.6hPa Calm     66% 0.00in /  0mm 26.0 W/m2
07:32 48.4 °F /  9.1 °C 37.2 °F /  2.9 °C 30.23in /  1023.6hPa Calm     65% 0.00in /  0mm 28.0 W/m2
07:38 49.3 °F /  9.6 °C 38.5 °F /  3.6 °C 30.24in /  1023.9hPa Calm     66% 0.00in /  0mm 30.0 W/m2
07:44 50.2 °F /  10.1 °C 38.8 °F /  3.8 °C 30.24in /  1023.9hPa Calm     65% 0.00in /  0mm 32.0 W/m2
07:50 51.3 °F /  10.7 °C 39.0 °F /  3.9 °C 30.24in /  1023.9hPa Calm     63% 0.00in /  0mm 33.0 W/m2
07:54 52.2 °F /  11.2 °C 39.6 °F /  4.2 °C 30.24in /  1023.9hPa Calm     62% 0.00in /  0mm 33.0 W/m2
08:00 54.0 °F /  12.2 °C 39.0 °F /  3.9 °C 30.24in /  1023.9hPa Calm     57% 0.00in /  0mm 44.0 W/m2
08:06 56.1 °F /  13.4 °C 37.8 °F /  3.2 °C 30.24in /  1023.9hPa Calm     50% 0.00in /  0mm 315.0 W/m2
08:13 58.3 °F /  14.6 °C 36.5 °F /  2.5 °C 30.24in /  1023.9hPa Calm   3.0mph /  4.8km/h 44% 0.00in /  0mm 332.0 W/m2
08:19 59.9 °F /  15.5 °C 38.5 °F /  3.6 °C 30.25in /  1024.3hPa West 2.0mph /  3.2km/h 2.0mph /  3.2km/h 45% 0.00in /  0mm 350.0 W/m2
08:25 62.1 °F /  16.7 °C 35.4 °F /  1.9 °C 30.25in /  1024.3hPa West 2.9mph /  4.7km/h 9.0mph /  14.5km/h 37% 0.00in /  0mm 381.0 W/m2
08:31 64.2 °F /  17.9 °C 35.2 °F /  1.8 °C 30.26in /  1024.6hPa WSW 2.9mph /  4.7km/h 8.0mph /  12.9km/h 34% 0.00in /  0mm 401.0 W/m2
08:37 65.7 °F /  18.7 °C 35.8 °F /  2.1 °C 30.26in /  1024.6hPa WSW 6.9mph /  11.1km/h 8.0mph /  12.9km/h 33% 0.00in /  0mm 420.0 W/m2
08:44 66.4 °F /  19.1 °C 34.0 °F /  1.1 °C 30.26in /  1024.6hPa West 0.9mph /  1.4km/h 11.0mph /  17.7km/h 30% 0.00in /  0mm 436.0 W/m2
08:50 66.9 °F /  19.4 °C 34.5 °F /  1.4 °C 30.26in /  1024.6hPa West 2.0mph /  3.2km/h 9.0mph /  14.5km/h 30% 0.00in /  0mm 455.0 W/m2
08:56 67.3 °F /  19.6 °C 34.7 °F /  1.5 °C 30.26in /  1024.6hPa West 4.9mph /  7.9km/h 7.0mph /  11.3km/h 30% 0.00in /  0mm 471.0 W/m2
09:02 67.8 °F /  19.9 °C 35.2 °F /  1.8 °C 30.26in /  1024.6hPa Calm   3.0mph /  4.8km/h 30% 0.00in /  0mm 489.0 W/m2
09:08 68.4 °F /  20.2 °C 34.9 °F /  1.6 °C 30.26in /  1024.6hPa SSW 4.0mph /  6.4km/h 6.0mph /  9.7km/h 29% 0.00in /  0mm 508.0 W/m2
09:14 68.5 °F /  20.3 °C 34.2 °F /  1.2 °C 30.26in /  1024.6hPa West 8.1mph /  13km/h 8.1mph /  13km/h 28% 0.00in /  0mm 526.0 W/m2
09:20 68.9 °F /  20.5 °C 34.5 °F /  1.4 °C 30.26in /  1024.6hPa SSW 4.9mph /  7.9km/h 7.0mph /  11.3km/h 28% 0.00in /  0mm 522.0 W/m2
09:26 69.1 °F /  20.6 °C 33.6 °F /  0.9 °C 30.26in /  1024.6hPa WNW 2.9mph /  4.7km/h 9.0mph /  14.5km/h 27% 0.00in /  0mm 548.0 W/m2
09:32 69.4 °F /  20.8 °C 33.1 °F /  0.6 °C 30.26in /  1024.6hPa WNW 4.0mph /  6.4km/h 13.0mph /  20.9km/h 26% 0.00in /  0mm 559.0 W/m2
09:38 69.6 °F /  20.9 °C 33.3 °F /  0.7 °C 30.26in /  1024.6hPa WNW 4.0mph /  6.4km/h 10.0mph /  16.1km/h 26% 0.00in /  0mm 575.0 W/m2
09:44 70.2 °F /  21.2 °C 33.6 °F /  0.9 °C 30.26in /  1024.6hPa WSW 4.9mph /  7.9km/h 10.0mph /  16.1km/h 26% 0.00in /  0mm 592.0 W/m2
09:50 70.3 °F /  21.3 °C 31.8 °F /  -0.1 °C 30.26in /  1024.6hPa West 2.9mph /  4.7km/h 10.0mph /  16.1km/h 24% 0.00in /  0mm 608.0 W/m2
09:56 70.7 °F /  21.5 °C 32.2 °F /  0.1 °C 30.26in /  1024.6hPa WNW 2.9mph /  4.7km/h 7.0mph /  11.3km/h 24% 0.00in /  0mm 617.0 W/m2
10:02 70.9 °F /  21.6 °C 32.4 °F /  0.2 °C 30.26in /  1024.6hPa SW 0.9mph /  1.4km/h 10.0mph /  16.1km/h 24% 0.00in /  0mm 626.0 W/m2
10:08 71.2 °F /  21.8 °C 31.5 °F /  -0.3 °C 30.25in /  1024.3hPa North 2.0mph /  3.2km/h 10.0mph /  16.1km/h 23% 0.00in /  0mm 633.0 W/m2
10:15 71.4 °F /  21.9 °C 31.6 °F /  -0.2 °C 30.26in /  1024.6hPa West 8.9mph /  14.3km/h 10.0mph /  16.1km/h 23% 0.00in /  0mm 654.0 W/m2
10:21 71.6 °F /  22 °C 31.8 °F /  -0.1 °C 30.25in /  1024.3hPa NW 0.9mph /  1.4km/h 7.0mph /  11.3km/h 23% 0.00in /  0mm 663.0 W/m2
10:27 72.0 °F /  22.2 °C 33.3 °F /  0.7 °C 30.25in /  1024.3hPa West 0.9mph /  1.4km/h 4.0mph /  6.4km/h 24% 0.00in /  0mm 675.0 W/m2
10:33 72.7 °F /  22.6 °C 32.7 °F /  0.4 °C 30.25in /  1024.3hPa WSW 6.9mph /  11.1km/h 10.0mph /  16.1km/h 23% 0.00in /  0mm 684.0 W/m2
10:39 72.9 °F /  22.7 °C 32.9 °F /  0.5 °C 30.25in /  1024.3hPa West 0.9mph /  1.4km/h 6.0mph /  9.7km/h 23% 0.00in /  0mm 689.0 W/m2
10:45 73.4 °F /  23 °C 33.3 °F /  0.7 °C 30.24in /  1023.9hPa ENE 2.9mph /  4.7km/h 4.0mph /  6.4km/h 23% 0.00in /  0mm 694.0 W/m2
10:52 73.8 °F /  23.2 °C 32.5 °F /  0.3 °C 30.24in /  1023.9hPa Calm   3.0mph /  4.8km/h 22% 0.00in /  0mm 700.0 W/m2
10:58 74.1 °F /  23.4 °C 32.9 °F /  0.5 °C 30.24in /  1023.9hPa WSW 2.9mph /  4.7km/h 9.0mph /  14.5km/h 22% 0.00in /  0mm 708.0 W/m2
11:04 73.9 °F /  23.3 °C 31.5 °F /  -0.3 °C 30.24in /  1023.9hPa West 2.0mph /  3.2km/h 10.0mph /  16.1km/h 21% 0.00in /  0mm 714.0 W/m2
11:10 73.8 °F /  23.2 °C 31.5 °F /  -0.3 °C 30.24in /  1023.9hPa NW 0.9mph /  1.4km/h 7.0mph /  11.3km/h 21% 0.00in /  0mm 717.0 W/m2
11:16 73.8 °F /  23.2 °C 31.5 °F /  -0.3 °C 30.24in /  1023.9hPa Calm   8.0mph /  12.9km/h 21% 0.00in /  0mm 719.0 W/m2
11:22 73.8 °F /  23.2 °C 31.5 °F /  -0.3 °C 30.24in /  1023.9hPa SW 2.0mph /  3.2km/h 5.0mph /  8km/h 21% 0.00in /  0mm 724.0 W/m2
11:28 73.8 °F /  23.2 °C 31.5 °F /  -0.3 °C 30.24in /  1023.9hPa WSW 11.0mph /  17.7km/h 11.0mph /  17.7km/h 21% 0.00in /  0mm 724.0 W/m2
11:34 73.8 °F /  23.2 °C 31.5 °F /  -0.3 °C 30.24in /  1023.9hPa Calm   11.0mph /  17.7km/h 21% 0.00in /  0mm 726.0 W/m2
11:40 74.1 °F /  23.4 °C 32.9 °F /  0.5 °C 30.24in /  1023.9hPa SW 6.0mph /  9.7km/h 9.0mph /  14.5km/h 22% 0.00in /  0mm 731.0 W/m2
11:47 74.7 °F /  23.7 °C 32.2 °F /  0.1 °C 30.23in /  1023.6hPa West 2.0mph /  3.2km/h 7.0mph /  11.3km/h 21% 0.00in /  0mm 731.0 W/m2
11:53 74.7 °F /  23.7 °C 32.2 °F /  0.1 °C 30.23in /  1023.6hPa WSW 2.9mph /  4.7km/h 10.0mph /  16.1km/h 21% 0.00in /  0mm 731.0 W/m2
11:59 74.5 °F /  23.6 °C 32.0 °F /  0 °C 30.23in /  1023.6hPa SW 2.0mph /  3.2km/h 8.0mph /  12.9km/h 21% 0.00in /  0mm 728.0 W/m2
12:05 74.7 °F /  23.7 °C 32.2 °F /  0.1 °C 30.22in /  1023.2hPa West 2.9mph /  4.7km/h 8.0mph /  12.9km/h 21% 0.00in /  0mm 726.0 W/m2
12:11 75.0 °F /  23.9 °C 31.3 °F /  -0.4 °C 30.22in /  1023.2hPa Calm   3.0mph /  4.8km/h 20% 0.00in /  0mm 724.0 W/m2
12:17 75.4 °F /  24.1 °C 30.2 °F /  -1 °C 30.22in /  1023.2hPa Calm   10.0mph /  16.1km/h 19% 0.00in /  0mm 721.0 W/m2
12:23 75.4 °F /  24.1 °C 31.5 °F /  -0.3 °C 30.21in /  1022.9hPa WNW 8.1mph /  13km/h 8.1mph /  13km/h 20% 0.00in /  0mm 717.0 W/m2
12:29 75.6 °F /  24.2 °C 31.6 °F /  -0.2 °C 30.21in /  1022.9hPa West 6.0mph /  9.7km/h 9.0mph /  14.5km/h 20% 0.00in /  0mm 714.0 W/m2
12:42 75.7 °F /  24.3 °C 30.6 °F /  -0.8 °C 30.20in /  1022.6hPa ENE 0.9mph /  1.4km/h 9.0mph /  14.5km/h 19% 0.00in /  0mm 698.0 W/m2
12:48 76.3 °F /  24.6 °C 30.9 °F /  -0.6 °C 30.19in /  1022.2hPa North 6.0mph /  9.7km/h 7.0mph /  11.3km/h 19% 0.00in /  0mm 693.0 W/m2
12:54 76.1 °F /  24.5 °C 28.0 °F /  -2.2 °C 30.20in /  1022.6hPa West 4.9mph /  7.9km/h 12.0mph /  19.3km/h 17% 0.00in /  0mm 689.0 W/m2
13:00 76.1 °F /  24.5 °C 29.5 °F /  -1.4 °C 30.20in /  1022.6hPa WSW 2.0mph /  3.2km/h 10.0mph /  16.1km/h 18% 0.00in /  0mm 677.0 W/m2
13:06 76.3 °F /  24.6 °C 28.2 °F /  -2.1 °C 30.19in /  1022.2hPa WSW 4.0mph /  6.4km/h 13.0mph /  20.9km/h 17% 0.00in /  0mm 675.0 W/m2
13:12 75.9 °F /  24.4 °C 28.0 °F /  -2.2 °C 30.19in /  1022.2hPa WSW 2.0mph /  3.2km/h 7.0mph /  11.3km/h 17% 0.00in /  0mm 664.0 W/m2
13:19 76.3 °F /  24.6 °C 28.2 °F /  -2.1 °C 30.19in /  1022.2hPa NW 2.0mph /  3.2km/h 10.0mph /  16.1km/h 17% 0.00in /  0mm 654.0 W/m2
13:25 76.3 °F /  24.6 °C 29.7 °F /  -1.3 °C 30.19in /  1022.2hPa Calm   6.0mph /  9.7km/h 18% 0.00in /  0mm 638.0 W/m2
13:31 76.5 °F /  24.7 °C 28.4 °F /  -2 °C 30.19in /  1022.2hPa WSW 2.0mph /  3.2km/h 9.0mph /  14.5km/h 17% 0.00in /  0mm 628.0 W/m2
13:37 76.5 °F /  24.7 °C 27.0 °F /  -2.8 °C 30.19in /  1022.2hPa WNW 4.0mph /  6.4km/h 11.0mph /  17.7km/h 16% 0.00in /  0mm 626.0 W/m2
13:43 75.9 °F /  24.4 °C 26.4 °F /  -3.1 °C 30.19in /  1022.2hPa West 2.0mph /  3.2km/h 11.0mph /  17.7km/h 16% 0.00in /  0mm 606.0 W/m2
13:49 75.9 °F /  24.4 °C 26.4 °F /  -3.1 °C 30.19in /  1022.2hPa WNW 2.9mph /  4.7km/h 14.0mph /  22.5km/h 16% 0.00in /  0mm 599.0 W/m2
13:55 75.9 °F /  24.4 °C 26.4 °F /  -3.1 °C 30.19in /  1022.2hPa West 6.9mph /  11.1km/h 9.0mph /  14.5km/h 16% 0.00in /  0mm 587.0 W/m2
14:01 76.3 °F /  24.6 °C 26.8 °F /  -2.9 °C 30.19in /  1022.2hPa WNW 2.9mph /  4.7km/h 8.0mph /  12.9km/h 16% 0.00in /  0mm 573.0 W/m2
14:07 76.3 °F /  24.6 °C 26.8 °F /  -2.9 °C 30.18in /  1021.9hPa NNE 6.9mph /  11.1km/h 9.0mph /  14.5km/h 16% 0.00in /  0mm 559.0 W/m2
14:13 76.5 °F /  24.7 °C 27.0 °F /  -2.8 °C 30.18in /  1021.9hPa NW 11.0mph /  17.7km/h 11.0mph /  17.7km/h 16% 0.00in /  0mm 541.0 W/m2
14:20 76.6 °F /  24.8 °C 27.1 °F /  -2.7 °C 30.18in /  1021.9hPa SW 0.9mph /  1.4km/h 5.0mph /  8km/h 16% 0.00in /  0mm 526.0 W/m2
14:26 76.6 °F /  24.8 °C 25.5 °F /  -3.6 °C 30.18in /  1021.9hPa WNW 2.9mph /  4.7km/h 7.0mph /  11.3km/h 15% 0.00in /  0mm 512.0 W/m2
14:32 76.6 °F /  24.8 °C 25.5 °F /  -3.6 °C 30.18in /  1021.9hPa West 8.1mph /  13km/h 8.1mph /  13km/h 15% 0.00in /  0mm 492.0 W/m2
14:38 76.5 °F /  24.7 °C 25.3 °F /  -3.7 °C 30.18in /  1021.9hPa Calm   9.0mph /  14.5km/h 15% 0.00in /  0mm 480.0 W/m2
14:44 76.3 °F /  24.6 °C 25.2 °F /  -3.8 °C 30.18in /  1021.9hPa WSW 6.9mph /  11.1km/h 8.0mph /  12.9km/h 15% 0.00in /  0mm 457.0 W/m2
14:50 76.3 °F /  24.6 °C 25.2 °F /  -3.8 °C 30.18in /  1021.9hPa WSW 4.0mph /  6.4km/h 13.0mph /  20.9km/h 15% 0.00in /  0mm 439.0 W/m2
14:56 76.3 °F /  24.6 °C 25.2 °F /  -3.8 °C 30.18in /  1021.9hPa WSW 2.0mph /  3.2km/h 5.0mph /  8km/h 15% 0.00in /  0mm 424.0 W/m2
15:03 75.9 °F /  24.4 °C 23.4 °F /  -4.8 °C 30.19in /  1022.2hPa WNW 0.9mph /  1.4km/h 6.0mph /  9.7km/h 14% 0.00in /  0mm 406.0 W/m2
15:09 75.6 °F /  24.2 °C 24.6 °F /  -4.1 °C 30.18in /  1021.9hPa WNW 2.9mph /  4.7km/h 8.0mph /  12.9km/h 15% 0.00in /  0mm 385.0 W/m2
15:15 75.0 °F /  23.9 °C 22.6 °F /  -5.2 °C 30.19in /  1022.2hPa SW 2.0mph /  3.2km/h 11.0mph /  17.7km/h 14% 0.00in /  0mm 367.0 W/m2
15:21 74.8 °F /  23.8 °C 24.1 °F /  -4.4 °C 30.18in /  1021.9hPa SSW 2.0mph /  3.2km/h 3.0mph /  4.8km/h 15% 0.00in /  0mm 345.0 W/m2
15:27 74.7 °F /  23.7 °C 22.3 °F /  -5.4 °C 30.19in /  1022.2hPa WSW 2.0mph /  3.2km/h 7.0mph /  11.3km/h 14% 0.00in /  0mm 49.0 W/m2
15:33 74.1 °F /  23.4 °C 20.1 °F /  -6.6 °C 30.19in /  1022.2hPa SW 2.9mph /  4.7km/h 14.0mph /  22.5km/h 13% 0.00in /  0mm 44.0 W/m2
15:39 73.8 °F /  23.2 °C 21.6 °F /  -5.8 °C 30.19in /  1022.2hPa West 2.9mph /  4.7km/h 8.0mph /  12.9km/h 14% 0.00in /  0mm 42.0 W/m2
15:46 73.6 °F /  23.1 °C 21.4 °F /  -5.9 °C 30.19in /  1022.2hPa West 6.9mph /  11.1km/h 8.0mph /  12.9km/h 14% 0.00in /  0mm 39.0 W/m2
15:52 73.4 °F /  23 °C 19.6 °F /  -6.9 °C 30.19in /  1022.2hPa West 6.0mph /  9.7km/h 8.0mph /  12.9km/h 13% 0.00in /  0mm 39.0 W/m2
15:58 73.0 °F /  22.8 °C 21.0 °F /  -6.1 °C 30.19in /  1022.2hPa WNW 2.9mph /  4.7km/h 8.0mph /  12.9km/h 14% 0.00in /  0mm 33.0 W/m2
16:04 72.9 °F /  22.7 °C 19.2 °F /  -7.1 °C 30.19in /  1022.2hPa SW 2.9mph /  4.7km/h 9.0mph /  14.5km/h 13% 0.00in /  0mm 30.0 W/m2
16:10 72.7 °F /  22.6 °C 20.7 °F /  -6.3 °C 30.20in /  1022.6hPa West 4.9mph /  7.9km/h 10.0mph /  16.1km/h 14% 0.00in /  0mm 26.0 W/m2
16:22 72.1 °F /  22.3 °C 20.3 °F /  -6.5 °C 30.19in /  1022.2hPa WSW 2.9mph /  4.7km/h 11.0mph /  17.7km/h 14% 0.00in /  0mm 23.0 W/m2
16:28 72.0 °F /  22.2 °C 20.1 °F /  -6.6 °C 30.20in /  1022.6hPa WSW 2.9mph /  4.7km/h 9.0mph /  14.5km/h 14% 0.00in /  0mm 23.0 W/m2
16:34 71.8 °F /  22.1 °C 21.6 °F /  -5.8 °C 30.20in /  1022.6hPa WSW 4.0mph /  6.4km/h 7.0mph /  11.3km/h 15% 0.00in /  0mm 21.0 W/m2
16:41 71.4 °F /  21.9 °C 22.8 °F /  -5.1 °C 30.20in /  1022.6hPa Calm   2.0mph /  3.2km/h 16% 0.00in /  0mm 21.0 W/m2
16:47 71.1 °F /  21.7 °C 22.6 °F /  -5.2 °C 30.20in /  1022.6hPa Calm   3.0mph /  4.8km/h 16% 0.00in /  0mm 19.0 W/m2
16:53 70.7 °F /  21.5 °C 23.7 °F /  -4.6 °C 30.21in /  1022.9hPa Calm   3.0mph /  4.8km/h 17% 0.00in /  0mm 16.0 W/m2
16:59 70.3 °F /  21.3 °C 23.5 °F /  -4.7 °C 30.21in /  1022.9hPa Calm   2.0mph /  3.2km/h 17% 0.00in /  0mm 12.0 W/m2
17:05 69.6 °F /  20.9 °C 24.3 °F /  -4.3 °C 30.21in /  1022.9hPa Calm     18% 0.00in /  0mm 9.0 W/m2
17:12 69.3 °F /  20.7 °C 23.9 °F /  -4.5 °C 30.21in /  1022.9hPa Calm     18% 0.00in /  0mm 5.0 W/m2
17:17 68.5 °F /  20.3 °C 25.9 °F /  -3.4 °C 30.21in /  1022.9hPa Calm     20% 0.00in /  0mm 0.0 W/m2
17:23 68.0 °F /  20 °C 25.3 °F /  -3.7 °C 30.21in /  1022.9hPa Calm   2.0mph /  3.2km/h 20% 0.00in /  0mm 0.0 W/m2
17:36 66.6 °F /  19.2 °C 25.3 °F /  -3.7 °C 30.22in /  1023.2hPa Calm     21% 0.00in /  0mm 0.0 W/m2
17:42 66.0 °F /  18.9 °C 26.1 °F /  -3.3 °C 30.22in /  1023.2hPa Calm     22% 0.00in /  0mm 0.0 W/m2
17:48 65.3 °F /  18.5 °C 26.6 °F /  -3 °C 30.22in /  1023.2hPa Calm     23% 0.00in /  0mm 0.0 W/m2
17:54 64.8 °F /  18.2 °C 27.1 °F /  -2.7 °C 30.22in /  1023.2hPa Calm     24% 0.00in /  0mm 0.0 W/m2
17:59 64.0 °F /  17.8 °C 26.6 °F /  -3 °C 30.22in /  1023.2hPa Calm     24% 0.00in /  0mm 0.0 W/m2
18:06 62.8 °F /  17.1 °C 26.4 °F /  -3.1 °C 30.23in /  1023.6hPa Calm     25% 0.00in /  0mm 0.0 W/m2
18:12 62.1 °F /  16.7 °C 26.8 °F /  -2.9 °C 30.23in /  1023.6hPa Calm     26% 0.00in /  0mm 0.0 W/m2
18:19 61.2 °F /  16.2 °C 27.0 °F /  -2.8 °C 30.24in /  1023.9hPa Calm     27% 0.00in /  0mm 0.0 W/m2
18:25 60.3 °F /  15.7 °C 26.1 °F /  -3.3 °C 30.24in /  1023.9hPa Calm     27% 0.00in /  0mm 0.0 W/m2
18:31 59.5 °F /  15.3 °C 26.4 °F /  -3.1 °C 30.24in /  1023.9hPa Calm     28% 0.00in /  0mm 0.0 W/m2
18:37 59.0 °F /  15 °C 25.9 °F /  -3.4 °C 30.25in /  1024.3hPa SSE 2.9mph /  4.7km/h 3.0mph /  4.8km/h 28% 0.00in /  0mm 0.0 W/m2
18:43 58.5 °F /  14.7 °C 25.5 °F /  -3.6 °C 30.26in /  1024.6hPa Calm   5.0mph /  8km/h 28% 0.00in /  0mm 0.0 W/m2
18:49 58.5 °F /  14.7 °C 30.2 °F /  -1 °C 30.26in /  1024.6hPa South 0.9mph /  1.4km/h 7.0mph /  11.3km/h 34% 0.00in /  0mm 0.0 W/m2
18:55 59.4 °F /  15.2 °C 33.1 °F /  0.6 °C 30.26in /  1024.6hPa South 8.9mph /  14.3km/h 11.0mph /  17.7km/h 37% 0.00in /  0mm 0.0 W/m2
19:01 59.5 °F /  15.3 °C 34.0 °F /  1.1 °C 30.26in /  1024.6hPa SE 6.9mph /  11.1km/h 12.0mph /  19.3km/h 38% 0.00in /  0mm 0.0 W/m2
19:07 59.5 °F /  15.3 °C 34.5 °F /  1.4 °C 30.26in /  1024.6hPa SSW 0.9mph /  1.4km/h 12.0mph /  19.3km/h 39% 0.00in /  0mm 0.0 W/m2
19:13 59.2 °F /  15.1 °C 35.4 °F /  1.9 °C 30.27in /  1024.9hPa Calm   13.0mph /  20.9km/h 41% 0.00in /  0mm 0.0 W/m2
19:19 58.6 °F /  14.8 °C 36.1 °F /  2.3 °C 30.27in /  1024.9hPa SE 2.0mph /  3.2km/h 6.0mph /  9.7km/h 43% 0.00in /  0mm 0.0 W/m2
19:25 57.9 °F /  14.4 °C 36.1 °F /  2.3 °C 30.27in /  1024.9hPa SE 4.9mph /  7.9km/h 9.0mph /  14.5km/h 44% 0.00in /  0mm 0.0 W/m2
19:32 57.4 °F /  14.1 °C 36.7 °F /  2.6 °C 30.27in /  1024.9hPa SSW 2.0mph /  3.2km/h 12.0mph /  19.3km/h 46% 0.00in /  0mm 0.0 W/m2
19:38 56.8 °F /  13.8 °C 36.9 °F /  2.7 °C 30.27in /  1024.9hPa SSE 10.1mph /  16.3km/h 18.0mph /  29km/h 47% 0.00in /  0mm 0.0 W/m2
19:44 56.5 °F /  13.6 °C 37.0 °F /  2.8 °C 30.28in /  1025.3hPa NE 2.0mph /  3.2km/h 11.0mph /  17.7km/h 48% 0.00in /  0mm 0.0 W/m2
19:50 55.9 °F /  13.3 °C 37.0 °F /  2.8 °C 30.28in /  1025.3hPa Calm   10.0mph /  16.1km/h 49% 0.00in /  0mm 0.0 W/m2
19:56 55.6 °F /  13.1 °C 36.7 °F /  2.6 °C 30.28in /  1025.3hPa South 6.9mph /  11.1km/h 10.0mph /  16.1km/h 49% 0.00in /  0mm 0.0 W/m2
20:02 55.2 °F /  12.9 °C 36.9 °F /  2.7 °C 30.29in /  1025.6hPa South 2.0mph /  3.2km/h 12.0mph /  19.3km/h 50% 0.00in /  0mm 0.0 W/m2
20:08 55.0 °F /  12.8 °C 36.7 °F /  2.6 °C 30.29in /  1025.6hPa SSW 2.0mph /  3.2km/h 11.0mph /  17.7km/h 50% 0.00in /  0mm 0.0 W/m2
20:14 54.9 °F /  12.7 °C 37.0 °F /  2.8 °C 30.30in /  1026hPa SSE 14.1mph /  22.7km/h 14.1mph /  22.7km/h 51% 0.00in /  0mm 0.0 W/m2
20:21 54.9 °F /  12.7 °C 37.0 °F /  2.8 °C 30.30in /  1026hPa South 2.9mph /  4.7km/h 10.0mph /  16.1km/h 51% 0.00in /  0mm 0.0 W/m2
20:27 54.7 °F /  12.6 °C 36.9 °F /  2.7 °C 30.30in /  1026hPa SSW 0.9mph /  1.4km/h 10.0mph /  16.1km/h 51% 0.00in /  0mm 0.0 W/m2
20:33 54.7 °F /  12.6 °C 36.9 °F /  2.7 °C 30.30in /  1026hPa SSE 2.0mph /  3.2km/h 5.0mph /  8km/h 51% 0.00in /  0mm 0.0 W/m2
20:39 54.7 °F /  12.6 °C 36.9 °F /  2.7 °C 30.31in /  1026.3hPa Calm   8.0mph /  12.9km/h 51% 0.00in /  0mm 0.0 W/m2
20:45 54.7 °F /  12.6 °C 36.9 °F /  2.7 °C 30.31in /  1026.3hPa Calm   1.0mph /  1.6km/h 51% 0.00in /  0mm 0.0 W/m2
20:51 54.5 °F /  12.5 °C 36.7 °F /  2.6 °C 30.32in /  1026.6hPa SSE 0.9mph /  1.4km/h 4.0mph /  6.4km/h 51% 0.00in /  0mm 0.0 W/m2
20:57 54.7 °F /  12.6 °C 36.9 °F /  2.7 °C 30.32in /  1026.6hPa Calm   2.0mph /  3.2km/h 51% 0.00in /  0mm 0.0 W/m2
21:03 54.7 °F /  12.6 °C 36.3 °F /  2.4 °C 30.32in /  1026.6hPa ESE 2.9mph /  4.7km/h 5.0mph /  8km/h 50% 0.00in /  0mm 0.0 W/m2
21:10 54.9 °F /  12.7 °C 36.5 °F /  2.5 °C 30.32in /  1026.6hPa South 2.9mph /  4.7km/h 5.0mph /  8km/h 50% 0.00in /  0mm 0.0 W/m2
21:16 54.9 °F /  12.7 °C 36.5 °F /  2.5 °C 30.32in /  1026.6hPa Calm   3.0mph /  4.8km/h 50% 0.00in /  0mm 0.0 W/m2
21:22 54.9 °F /  12.7 °C 36.5 °F /  2.5 °C 30.32in /  1026.6hPa Calm   6.0mph /  9.7km/h 50% 0.00in /  0mm 0.0 W/m2
21:28 54.9 °F /  12.7 °C 36.5 °F /  2.5 °C 30.32in /  1026.6hPa Calm   6.0mph /  9.7km/h 50% 0.00in /  0mm 0.0 W/m2
21:34 54.7 °F /  12.6 °C 36.3 °F /  2.4 °C 30.32in /  1026.6hPa Calm     50% 0.00in /  0mm 0.0 W/m2
21:40 54.3 °F /  12.4 °C 36.1 °F /  2.3 °C 30.32in /  1026.6hPa Calm   1.0mph /  1.6km/h 50% 0.00in /  0mm 0.0 W/m2
21:46 54.1 °F /  12.3 °C 36.3 °F /  2.4 °C 30.33in /  1027hPa Calm     51% 0.00in /  0mm 0.0 W/m2
21:52 54.0 °F /  12.2 °C 36.3 °F /  2.4 °C 30.33in /  1027hPa Calm     51% 0.00in /  0mm 0.0 W/m2
21:59 53.4 °F /  11.9 °C 36.3 °F /  2.4 °C 30.33in /  1027hPa Calm     52% 0.00in /  0mm 0.0 W/m2
22:05 53.1 °F /  11.7 °C 36.3 °F /  2.4 °C 30.33in /  1027hPa Calm   3.0mph /  4.8km/h 53% 0.00in /  0mm 0.0 W/m2
22:11 52.9 °F /  11.6 °C 36.1 °F /  2.3 °C 30.33in /  1027hPa Calm   2.0mph /  3.2km/h 53% 0.00in /  0mm 0.0 W/m2
22:17 52.9 °F /  11.6 °C 36.1 °F /  2.3 °C 30.33in /  1027hPa Calm     53% 0.00in /  0mm 0.0 W/m2
22:23 52.9 °F /  11.6 °C 36.1 °F /  2.3 °C 30.32in /  1026.6hPa Calm     53% 0.00in /  0mm 0.0 W/m2
22:29 52.5 °F /  11.4 °C 36.3 °F /  2.4 °C 30.32in /  1026.6hPa Calm     54% 0.00in /  0mm 0.0 W/m2
22:35 52.2 °F /  11.2 °C 36.5 °F /  2.5 °C 30.32in /  1026.6hPa Calm     55% 0.00in /  0mm 0.0 W/m2
22:41 51.6 °F /  10.9 °C 36.0 °F /  2.2 °C 30.33in /  1027hPa Calm     55% 0.00in /  0mm 0.0 W/m2
22:48 51.3 °F /  10.7 °C 35.6 °F /  2 °C 30.33in /  1027hPa Calm     55% 0.00in /  0mm 0.0 W/m2
22:54 51.1 °F /  10.6 °C 36.0 °F /  2.2 °C 30.33in /  1027hPa Calm     56% 0.00in /  0mm 0.0 W/m2
23:00 50.5 °F /  10.3 °C 36.0 °F /  2.2 °C 30.33in /  1027hPa Calm     57% 0.00in /  0mm 0.0 W/m2
23:06 50.2 °F /  10.1 °C 36.0 °F /  2.2 °C 30.33in /  1027hPa Calm     58% 0.00in /  0mm 0.0 W/m2
23:12 49.8 °F /  9.9 °C 36.1 °F /  2.3 °C 30.33in /  1027hPa Calm     59% 0.00in /  0mm 0.0 W/m2
23:18 49.6 °F /  9.8 °C 36.0 °F /  2.2 °C 30.33in /  1027hPa Calm     59% 0.00in /  0mm 0.0 W/m2
23:24 49.5 °F /  9.7 °C 35.8 °F /  2.1 °C 30.32in /  1026.6hPa Calm     59% 0.00in /  0mm 0.0 W/m2
23:30 49.3 °F /  9.6 °C 35.6 °F /  2 °C 30.32in /  1026.6hPa Calm     59% 0.00in /  0mm 0.0 W/m2
23:36 48.9 °F /  9.4 °C 35.2 °F /  1.8 °C 30.32in /  1026.6hPa Calm     59% 0.00in /  0mm 0.0 W/m2
23:42 48.7 °F /  9.3 °C 35.4 °F /  1.9 °C 30.32in /  1026.6hPa Calm     60% 0.00in /  0mm 0.0 W/m2
23:48 48.6 °F /  9.2 °C 35.2 °F /  1.8 °C 30.32in /  1026.6hPa Calm     60% 0.00in /  0mm 0.0 W/m2
23:54 48.6 °F /  9.2 °C 35.2 °F /  1.8 °C 30.32in /  1026.6hPa Calm     60% 0.00in /  0mm 0.0 W/m2
Olympia, Windhoek, Namibia
Compliments of Weather Underground - 3 mb